Senhora do Porto, Brazil
Current Conditions -  °F | °C
As of 1:00 PM on Tuesday 21 Oct 2014 (Local Time) from SBIP Reporting Station
Smoke Smoke  
Wind Chill: 81°   Ceiling: 5000
Heat Index: 82°   Visibility: 2.5mi
Dew Point: 64°   Wind: 5mph
Humidity: 58%   Direction: 260°W
Pressure: 30.03"   Gusts: NA
Location:  18.89°S, 43.08°W
Report Text: SBIP 211500Z 26004KT 4000 FU SCT025 BKN050 27/18 Q1017
Loading
Personal Weather Stations






























Interactive Weather Map
Tropical Storm Tracking
New forecast layout! Learn more

10-Day Weather Forecast

Advertisements
Track Severe Weather on mobile